Portland, Oregon
Traffic Map
Current Weather Conditions
Portland, Oregon
Overcast
Overcast
47°
Feels Like: 45°
Wind Chill: 45° Ceiling: 5500
Heat Index: 47° Visibility: 10mi
Dew Point: 44° Wind: 5mph
Humidity: 90% Direction: 90° (E)
Pressure: 29.93in Gusts: 0mph
Raw Report DataKPDX 250553Z 09004KT 10SM BKN055 BKN065 OVC090 08/07 A2993 RMK AO2 SLP134 60001 T00830067 10139 20083 50005
Traffic Incident Summary
Active as of:
Severity:
Category:
InformationThere was an issue retrieving the traffic information for this location. Please try a different location or try again shortly.
Advertisements
At Last! Intellicast now available for iPhone and Android